sensor_id;sensor_type;location;lat;lon;timestamp;P1;durP1;ratioP1;P2;durP2;ratioP2
5965;SDS011;3009;43.224;27.976;2022-12-01T00:01:30;11.07;;;6.50;;
5965;SDS011;3009;43.224;27.976;2022-12-01T00:03:58;12.13;;;8.13;;
5965;SDS011;3009;43.224;27.976;2022-12-01T00:06:26;12.67;;;7.47;;
5965;SDS011;3009;43.224;27.976;2022-12-01T00:08:54;9.03;;;6.97;;
5965;SDS011;3009;43.224;27.976;2022-12-01T00:11:45;20.97;;;9.07;;
5965;SDS011;3009;43.224;27.976;2022-12-01T00:14:14;9.80;;;7.60;;
5965;SDS011;3009;43.224;27.976;2022-12-01T00:16:44;11.30;;;6.50;;
5965;SDS011;3009;43.224;27.976;2022-12-01T00:19:12;8.30;;;6.20;;
5965;SDS011;3009;43.224;27.976;2022-12-01T00:21:40;10.70;;;8.40;;
5965;SDS011;3009;43.224;27.976;2022-12-01T00:24:09;13.13;;;9.30;;
5965;SDS011;3009;43.224;27.976;2022-12-01T00:26:38;12.30;;;8.17;;
5965;SDS011;3009;43.224;27.976;2022-12-01T00:29:06;11.20;;;7.60;;
5965;SDS011;3009;43.224;27.976;2022-12-01T00:31:34;16.00;;;7.57;;
5965;SDS011;3009;43.224;27.976;2022-12-01T00:34:04;17.70;;;9.63;;
5965;SDS011;3009;43.224;27.976;2022-12-01T00:36:37;13.07;;;8.30;;
5965;SDS011;3009;43.224;27.976;2022-12-01T00:39:06;11.30;;;7.30;;
5965;SDS011;3009;43.224;27.976;2022-12-01T00:41:34;10.60;;;7.10;;
5965;SDS011;3009;43.224;27.976;2022-12-01T00:44:03;8.10;;;6.40;;
5965;SDS011;3009;43.224;27.976;2022-12-01T00:46:31;12.90;;;7.60;;
5965;SDS011;3009;43.224;27.976;2022-12-01T00:48:59;11.23;;;6.97;;
5965;SDS011;3009;43.224;27.976;2022-12-01T00:51:29;14.50;;;6.53;;
5965;SDS011;3009;43.224;27.976;2022-12-01T00:53:57;5.97;;;4.87;;
5965;SDS011;3009;43.224;27.976;2022-12-01T00:56:25;7.27;;;6.10;;
5965;SDS011;3009;43.224;27.976;2022-12-01T00:58:53;7.27;;;5.20;;
5965;SDS011;3009;43.224;27.976;2022-12-01T01:01:21;10.93;;;5.83;;
5965;SDS011;3009;43.224;27.976;2022-12-01T01:03:50;16.80;;;8.10;;
5965;SDS011;3009;43.224;27.976;2022-12-01T01:06:18;7.80;;;6.53;;
5965;SDS011;3009;43.224;27.976;2022-12-01T01:08:48;8.00;;;5.40;;
5965;SDS011;3009;43.224;27.976;2022-12-01T01:11:16;10.27;;;7.13;;
5965;SDS011;3009;43.224;27.976;2022-12-01T01:13:44;9.47;;;6.27;;
5965;SDS011;3009;43.224;27.976;2022-12-01T01:16:13;9.70;;;6.37;;
5965;SDS011;3009;43.224;27.976;2022-12-01T01:18:42;10.00;;;6.73;;
5965;SDS011;3009;43.224;27.976;2022-12-01T01:21:12;6.50;;;5.67;;
5965;SDS011;3009;43.224;27.976;2022-12-01T01:23:42;7.87;;;5.30;;
5965;SDS011;3009;43.224;27.976;2022-12-01T01:26:13;11.07;;;6.60;;
5965;SDS011;3009;43.224;27.976;2022-12-01T01:28:42;5.77;;;5.17;;
5965;SDS011;3009;43.224;27.976;2022-12-01T01:31:11;6.67;;;5.67;;
5965;SDS011;3009;43.224;27.976;2022-12-01T01:33:41;5.83;;;5.23;;
5965;SDS011;3009;43.224;27.976;2022-12-01T01:36:09;7.80;;;5.70;;
5965;SDS011;3009;43.224;27.976;2022-12-01T01:38:38;6.63;;;5.30;;
5965;SDS011;3009;43.224;27.976;2022-12-01T01:41:06;8.20;;;5.40;;
5965;SDS011;3009;43.224;27.976;2022-12-01T01:43:41;5.97;;;4.50;;
5965;SDS011;3009;43.224;27.976;2022-12-01T01:46:11;6.77;;;6.07;;
5965;SDS011;3009;43.224;27.976;2022-12-01T01:48:41;5.47;;;4.93;;
5965;SDS011;3009;43.224;27.976;2022-12-01T01:51:12;6.30;;;5.10;;
5965;SDS011;3009;43.224;27.976;2022-12-01T01:53:42;5.90;;;5.30;;
5965;SDS011;3009;43.224;27.976;2022-12-01T01:56:13;4.60;;;4.10;;
5965;SDS011;3009;43.224;27.976;2022-12-01T01:58:44;7.17;;;4.47;;
5965;SDS011;3009;43.224;27.976;2022-12-01T02:01:12;7.97;;;5.17;;
5965;SDS011;3009;43.224;27.976;2022-12-01T02:03:40;6.53;;;3.73;;
5965;SDS011;3009;43.224;27.976;2022-12-01T02:06:09;4.03;;;3.70;;
5965;SDS011;3009;43.224;27.976;2022-12-01T02:08:39;4.90;;;4.33;;
5965;SDS011;3009;43.224;27.976;2022-12-01T02:11:18;4.17;;;3.77;;
5965;SDS011;3009;43.224;27.976;2022-12-01T02:14:01;5.27;;;4.50;;
5965;SDS011;3009;43.224;27.976;2022-12-01T02:16:40;3.27;;;3.07;;
5965;SDS011;3009;43.224;27.976;2022-12-01T02:19:25;5.70;;;5.10;;
5965;SDS011;3009;43.224;27.976;2022-12-01T02:22:13;5.23;;;4.73;;
5965;SDS011;3009;43.224;27.976;2022-12-01T02:25:06;4.07;;;3.70;;
5965;SDS011;3009;43.224;27.976;2022-12-01T02:30:59;4.80;;;3.63;;
5965;SDS011;3009;43.224;27.976;2022-12-01T02:33:34;5.03;;;4.50;;
5965;SDS011;3009;43.224;27.976;2022-12-01T02:36:09;3.57;;;3.27;;
5965;SDS011;3009;43.224;27.976;2022-12-01T02:38:43;4.80;;;4.40;;
5965;SDS011;3009;43.224;27.976;2022-12-01T02:41:18;3.37;;;3.10;;
5965;SDS011;3009;43.224;27.976;2022-12-01T02:43:52;4.93;;;4.23;;
5965;SDS011;3009;43.224;27.976;2022-12-01T02:46:28;4.43;;;4.03;;
5965;SDS011;3009;43.224;27.976;2022-12-01T02:49:03;3.90;;;3.33;;
5965;SDS011;3009;43.224;27.976;2022-12-01T02:51:36;2.93;;;2.73;;
5965;SDS011;3009;43.224;27.976;2022-12-01T02:54:10;5.50;;;4.07;;
5965;SDS011;3009;43.224;27.976;2022-12-01T02:56:42;3.67;;;3.37;;
5965;SDS011;3009;43.224;27.976;2022-12-01T02:59:12;4.13;;;3.83;;
5965;SDS011;3009;43.224;27.976;2022-12-01T03:01:49;3.93;;;3.50;;
5965;SDS011;3009;43.224;27.976;2022-12-01T03:04:40;4.20;;;3.80;;
5965;SDS011;3009;43.224;27.976;2022-12-01T03:07:25;2.70;;;2.50;;
5965;SDS011;3009;43.224;27.976;2022-12-01T03:10:17;4.40;;;4.00;;
5965;SDS011;3009;43.224;27.976;2022-12-01T03:12:58;4.03;;;3.63;;
5965;SDS011;3009;43.224;27.976;2022-12-01T03:15:35;2.83;;;2.73;;
5965;SDS011;3009;43.224;27.976;2022-12-01T03:18:15;2.67;;;2.47;;
5965;SDS011;3009;43.224;27.976;2022-12-01T03:20:54;3.50;;;3.20;;
5965;SDS011;3009;43.224;27.976;2022-12-01T03:23:26;3.73;;;3.43;;
5965;SDS011;3009;43.224;27.976;2022-12-01T03:25:59;3.27;;;3.07;;
5965;SDS011;3009;43.224;27.976;2022-12-01T03:28:35;3.13;;;2.90;;
5965;SDS011;3009;43.224;27.976;2022-12-01T03:31:10;3.20;;;2.90;;
5965;SDS011;3009;43.224;27.976;2022-12-01T03:33:45;3.27;;;3.03;;
5965;SDS011;3009;43.224;27.976;2022-12-01T03:36:18;6.00;;;3.50;;
5965;SDS011;3009;43.224;27.976;2022-12-01T03:38:50;3.90;;;3.60;;
5965;SDS011;3009;43.224;27.976;2022-12-01T03:41:23;3.30;;;3.10;;
5965;SDS011;3009;43.224;27.976;2022-12-01T03:43:56;4.37;;;3.00;;
5965;SDS011;3009;43.224;27.976;2022-12-01T03:46:32;4.00;;;3.70;;
5965;SDS011;3009;43.224;27.976;2022-12-01T03:49:09;5.27;;;3.20;;
5965;SDS011;3009;43.224;27.976;2022-12-01T03:51:38;7.27;;;4.13;;
5965;SDS011;3009;43.224;27.976;2022-12-01T03:54:16;3.73;;;3.40;;
5965;SDS011;3009;43.224;27.976;2022-12-01T03:56:48;3.40;;;3.20;;
5965;SDS011;3009;43.224;27.976;2022-12-01T03:59:22;2.90;;;2.70;;
5965;SDS011;3009;43.224;27.976;2022-12-01T04:01:52;2.47;;;2.37;;
5965;SDS011;3009;43.224;27.976;2022-12-01T04:04:22;3.23;;;2.93;;
5965;SDS011;3009;43.224;27.976;2022-12-01T04:06:50;2.80;;;2.60;;
5965;SDS011;3009;43.224;27.976;2022-12-01T04:09:19;3.23;;;3.03;;
5965;SDS011;3009;43.224;27.976;2022-12-01T04:11:47;2.47;;;2.37;;
5965;SDS011;3009;43.224;27.976;2022-12-01T04:14:32;2.80;;;2.63;;
5965;SDS011;3009;43.224;27.976;2022-12-01T04:17:00;2.83;;;2.37;;
5965;SDS011;3009;43.224;27.976;2022-12-01T04:19:30;2.73;;;2.53;;
5965;SDS011;3009;43.224;27.976;2022-12-01T04:21:58;2.90;;;2.70;;
5965;SDS011;3009;43.224;27.976;2022-12-01T04:24:26;3.27;;;2.73;;
5965;SDS011;3009;43.224;27.976;2022-12-01T04:26:54;1.60;;;1.50;;
5965;SDS011;3009;43.224;27.976;2022-12-01T04:29:22;3.50;;;3.30;;
5965;SDS011;3009;43.224;27.976;2022-12-01T04:31:51;2.30;;;2.20;;
5965;SDS011;3009;43.224;27.976;2022-12-01T04:34:19;2.53;;;2.43;;
5965;SDS011;3009;43.224;27.976;2022-12-01T04:36:48;1.80;;;1.70;;
5965;SDS011;3009;43.224;27.976;2022-12-01T04:39:17;2.50;;;2.30;;
5965;SDS011;3009;43.224;27.976;2022-12-01T04:41:45;2.27;;;2.13;;
5965;SDS011;3009;43.224;27.976;2022-12-01T04:44:13;2.73;;;2.23;;
5965;SDS011;3009;43.224;27.976;2022-12-01T04:46:42;2.50;;;2.30;;
5965;SDS011;3009;43.224;27.976;2022-12-01T04:49:10;5.03;;;2.80;;
5965;SDS011;3009;43.224;27.976;2022-12-01T04:51:38;2.43;;;2.13;;
5965;SDS011;3009;43.224;27.976;2022-12-01T04:54:08;4.63;;;2.40;;
5965;SDS011;3009;43.224;27.976;2022-12-01T04:56:36;2.83;;;2.63;;
5965;SDS011;3009;43.224;27.976;2022-12-01T04:59:04;2.27;;;2.17;;
5965;SDS011;3009;43.224;27.976;2022-12-01T05:01:32;3.43;;;3.23;;
5965;SDS011;3009;43.224;27.976;2022-12-01T05:04:01;2.40;;;2.20;;
5965;SDS011;3009;43.224;27.976;2022-12-01T05:06:29;4.63;;;2.00;;
5965;SDS011;3009;43.224;27.976;2022-12-01T05:08:58;2.00;;;1.87;;
5965;SDS011;3009;43.224;27.976;2022-12-01T05:11:29;2.17;;;2.07;;
5965;SDS011;3009;43.224;27.976;2022-12-01T05:13:58;2.17;;;1.97;;
5965;SDS011;3009;43.224;27.976;2022-12-01T05:16:27;2.90;;;2.70;;
5965;SDS011;3009;43.224;27.976;2022-12-01T05:18:58;2.10;;;2.00;;
5965;SDS011;3009;43.224;27.976;2022-12-01T05:21:45;2.67;;;2.47;;
5965;SDS011;3009;43.224;27.976;2022-12-01T05:24:15;3.00;;;2.60;;
5965;SDS011;3009;43.224;27.976;2022-12-01T05:26:46;2.50;;;2.40;;
5965;SDS011;3009;43.224;27.976;2022-12-01T05:29:15;2.77;;;2.57;;
5965;SDS011;3009;43.224;27.976;2022-12-01T05:31:43;3.90;;;3.10;;
5965;SDS011;3009;43.224;27.976;2022-12-01T05:34:13;4.43;;;4.13;;
5965;SDS011;3009;43.224;27.976;2022-12-01T05:36:41;5.10;;;4.30;;
5965;SDS011;3009;43.224;27.976;2022-12-01T05:39:09;8.73;;;3.47;;
5965;SDS011;3009;43.224;27.976;2022-12-01T05:41:38;3.27;;;3.00;;
5965;SDS011;3009;43.224;27.976;2022-12-01T05:44:07;2.80;;;2.70;;
5965;SDS011;3009;43.224;27.976;2022-12-01T05:46:35;2.50;;;2.30;;
5965;SDS011;3009;43.224;27.976;2022-12-01T05:49:04;3.67;;;3.37;;
5965;SDS011;3009;43.224;27.976;2022-12-01T05:51:32;2.90;;;2.70;;
5965;SDS011;3009;43.224;27.976;2022-12-01T05:54:02;2.50;;;2.40;;
5965;SDS011;3009;43.224;27.976;2022-12-01T05:56:30;3.00;;;2.80;;
5965;SDS011;3009;43.224;27.976;2022-12-01T05:58:58;2.60;;;2.40;;
5965;SDS011;3009;43.224;27.976;2022-12-01T06:01:28;3.70;;;3.50;;
5965;SDS011;3009;43.224;27.976;2022-12-01T06:03:56;3.80;;;3.50;;
5965;SDS011;3009;43.224;27.976;2022-12-01T06:06:24;3.80;;;3.50;;
5965;SDS011;3009;43.224;27.976;2022-12-01T06:08:52;3.37;;;3.17;;
5965;SDS011;3009;43.224;27.976;2022-12-01T06:11:20;3.00;;;2.80;;
5965;SDS011;3009;43.224;27.976;2022-12-01T06:13:49;3.67;;;3.37;;
5965;SDS011;3009;43.224;27.976;2022-12-01T06:16:17;5.27;;;3.43;;
5965;SDS011;3009;43.224;27.976;2022-12-01T06:18:46;3.60;;;3.30;;
5965;SDS011;3009;43.224;27.976;2022-12-01T06:21:15;3.60;;;3.30;;
5965;SDS011;3009;43.224;27.976;2022-12-01T06:23:43;4.93;;;3.57;;
5965;SDS011;3009;43.224;27.976;2022-12-01T06:26:11;3.57;;;3.37;;
5965;SDS011;3009;43.224;27.976;2022-12-01T06:28:39;2.93;;;2.63;;
5965;SDS011;3009;43.224;27.976;2022-12-01T06:31:07;2.47;;;2.37;;
5965;SDS011;3009;43.224;27.976;2022-12-01T06:33:35;3.20;;;3.00;;
5965;SDS011;3009;43.224;27.976;2022-12-01T06:36:06;3.00;;;2.57;;
5965;SDS011;3009;43.224;27.976;2022-12-01T06:38:35;4.60;;;2.63;;
5965;SDS011;3009;43.224;27.976;2022-12-01T06:41:04;3.50;;;3.20;;
5965;SDS011;3009;43.224;27.976;2022-12-01T06:43:34;3.33;;;2.73;;
5965;SDS011;3009;43.224;27.976;2022-12-01T06:46:03;2.50;;;2.30;;
5965;SDS011;3009;43.224;27.976;2022-12-01T06:48:32;2.60;;;2.40;;
5965;SDS011;3009;43.224;27.976;2022-12-01T06:51:00;5.53;;;3.17;;
5965;SDS011;3009;43.224;27.976;2022-12-01T06:53:30;3.77;;;3.30;;
5965;SDS011;3009;43.224;27.976;2022-12-01T06:55:58;3.10;;;2.80;;
5965;SDS011;3009;43.224;27.976;2022-12-01T06:58:27;3.20;;;2.60;;
5965;SDS011;3009;43.224;27.976;2022-12-01T07:00:56;3.20;;;3.00;;
5965;SDS011;3009;43.224;27.976;2022-12-01T07:03:24;4.63;;;3.80;;
5965;SDS011;3009;43.224;27.976;2022-12-01T07:05:56;4.77;;;3.50;;
5965;SDS011;3009;43.224;27.976;2022-12-01T07:08:26;8.27;;;3.57;;
5965;SDS011;3009;43.224;27.976;2022-12-01T07:10:57;3.40;;;3.10;;
5965;SDS011;3009;43.224;27.976;2022-12-01T07:13:26;4.33;;;4.00;;
5965;SDS011;3009;43.224;27.976;2022-12-01T07:15:59;3.30;;;2.50;;
5965;SDS011;3009;43.224;27.976;2022-12-01T07:18:28;3.03;;;2.73;;
5965;SDS011;3009;43.224;27.976;2022-12-01T07:20:57;4.40;;;3.20;;
5965;SDS011;3009;43.224;27.976;2022-12-01T07:23:26;4.23;;;3.80;;
5965;SDS011;3009;43.224;27.976;2022-12-01T07:25:59;2.77;;;2.57;;
5965;SDS011;3009;43.224;27.976;2022-12-01T07:28:28;3.57;;;3.27;;
5965;SDS011;3009;43.224;27.976;2022-12-01T07:31:02;7.20;;;3.67;;
5965;SDS011;3009;43.224;27.976;2022-12-01T07:33:39;14.80;;;2.83;;
5965;SDS011;3009;43.224;27.976;2022-12-01T07:36:16;2.60;;;2.40;;
5965;SDS011;3009;43.224;27.976;2022-12-01T07:38:48;3.50;;;3.20;;
5965;SDS011;3009;43.224;27.976;2022-12-01T07:41:26;4.90;;;3.10;;
5965;SDS011;3009;43.224;27.976;2022-12-01T07:44:02;7.47;;;2.73;;
5965;SDS011;3009;43.224;27.976;2022-12-01T07:46:32;2.97;;;2.67;;
5965;SDS011;3009;43.224;27.976;2022-12-01T07:49:10;4.50;;;2.57;;
5965;SDS011;3009;43.224;27.976;2022-12-01T07:51:40;2.77;;;2.57;;
5965;SDS011;3009;43.224;27.976;2022-12-01T07:54:10;4.33;;;3.93;;
5965;SDS011;3009;43.224;27.976;2022-12-01T07:56:53;5.67;;;3.70;;
5965;SDS011;3009;43.224;27.976;2022-12-01T07:59:42;3.63;;;3.33;;
5965;SDS011;3009;43.224;27.976;2022-12-01T08:02:23;6.07;;;3.20;;
5965;SDS011;3009;43.224;27.976;2022-12-01T08:04:54;8.30;;;3.80;;
5965;SDS011;3009;43.224;27.976;2022-12-01T08:07:28;3.40;;;3.10;;
5965;SDS011;3009;43.224;27.976;2022-12-01T08:10:15;4.10;;;3.00;;
5965;SDS011;3009;43.224;27.976;2022-12-01T08:12:47;3.87;;;3.57;;
5965;SDS011;3009;43.224;27.976;2022-12-01T08:15:28;4.00;;;3.60;;
5965;SDS011;3009;43.224;27.976;2022-12-01T08:17:59;2.70;;;2.50;;
5965;SDS011;3009;43.224;27.976;2022-12-01T08:20:33;2.83;;;2.60;;
5965;SDS011;3009;43.224;27.976;2022-12-01T08:23:01;4.87;;;3.57;;
5965;SDS011;3009;43.224;27.976;2022-12-01T08:25:31;4.30;;;3.90;;
5965;SDS011;3009;43.224;27.976;2022-12-01T08:28:00;4.77;;;3.40;;
5965;SDS011;3009;43.224;27.976;2022-12-01T08:30:29;4.33;;;3.93;;
5965;SDS011;3009;43.224;27.976;2022-12-01T08:32:57;5.83;;;4.20;;
5965;SDS011;3009;43.224;27.976;2022-12-01T08:35:25;6.57;;;3.60;;
5965;SDS011;3009;43.224;27.976;2022-12-01T08:37:53;8.23;;;6.93;;
5965;SDS011;3009;43.224;27.976;2022-12-01T08:40:21;4.43;;;4.03;;
5965;SDS011;3009;43.224;27.976;2022-12-01T08:42:50;3.60;;;3.00;;
5965;SDS011;3009;43.224;27.976;2022-12-01T08:45:20;2.50;;;2.30;;
5965;SDS011;3009;43.224;27.976;2022-12-01T08:47:48;3.67;;;3.27;;
5965;SDS011;3009;43.224;27.976;2022-12-01T08:50:16;4.53;;;4.13;;
5965;SDS011;3009;43.224;27.976;2022-12-01T08:52:44;6.03;;;5.43;;
5965;SDS011;3009;43.224;27.976;2022-12-01T08:55:13;5.50;;;4.10;;
5965;SDS011;3009;43.224;27.976;2022-12-01T08:57:41;3.47;;;3.20;;
5965;SDS011;3009;43.224;27.976;2022-12-01T09:00:10;3.17;;;2.27;;
5965;SDS011;3009;43.224;27.976;2022-12-01T09:02:40;5.90;;;3.47;;
5965;SDS011;3009;43.224;27.976;2022-12-01T09:05:08;7.23;;;5.07;;
5965;SDS011;3009;43.224;27.976;2022-12-01T09:07:36;6.07;;;3.70;;
5965;SDS011;3009;43.224;27.976;2022-12-01T09:10:06;7.37;;;5.30;;
5965;SDS011;3009;43.224;27.976;2022-12-01T09:12:36;11.60;;;6.63;;
5965;SDS011;3009;43.224;27.976;2022-12-01T09:15:05;5.97;;;4.10;;
5965;SDS011;3009;43.224;27.976;2022-12-01T09:17:33;7.00;;;4.27;;
5965;SDS011;3009;43.224;27.976;2022-12-01T09:20:03;4.13;;;3.67;;
5965;SDS011;3009;43.224;27.976;2022-12-01T09:22:32;7.00;;;4.80;;
5965;SDS011;3009;43.224;27.976;2022-12-01T09:25:01;9.60;;;7.20;;
5965;SDS011;3009;43.224;27.976;2022-12-01T09:27:29;15.53;;;9.23;;
5965;SDS011;3009;43.224;27.976;2022-12-01T09:29:57;11.27;;;7.17;;
5965;SDS011;3009;43.224;27.976;2022-12-01T09:32:25;11.60;;;8.27;;
5965;SDS011;3009;43.224;27.976;2022-12-01T09:34:53;10.03;;;6.80;;
5965;SDS011;3009;43.224;27.976;2022-12-01T09:37:23;11.87;;;8.37;;
5965;SDS011;3009;43.224;27.976;2022-12-01T09:39:51;17.87;;;8.30;;
5965;SDS011;3009;43.224;27.976;2022-12-01T09:42:19;17.23;;;8.67;;
5965;SDS011;3009;43.224;27.976;2022-12-01T09:44:59;15.03;;;8.20;;
5965;SDS011;3009;43.224;27.976;2022-12-01T09:47:30;15.60;;;7.80;;
5965;SDS011;3009;43.224;27.976;2022-12-01T09:50:03;8.30;;;5.97;;
5965;SDS011;3009;43.224;27.976;2022-12-01T09:52:39;4.77;;;4.30;;
5965;SDS011;3009;43.224;27.976;2022-12-01T09:55:11;16.20;;;7.93;;
5965;SDS011;3009;43.224;27.976;2022-12-01T09:57:41;8.23;;;5.17;;
5965;SDS011;3009;43.224;27.976;2022-12-01T10:00:11;6.10;;;4.67;;
5965;SDS011;3009;43.224;27.976;2022-12-01T10:02:42;8.50;;;5.40;;
5965;SDS011;3009;43.224;27.976;2022-12-01T10:05:17;8.20;;;4.70;;
5965;SDS011;3009;43.224;27.976;2022-12-01T10:07:49;10.83;;;5.47;;
5965;SDS011;3009;43.224;27.976;2022-12-01T10:10:23;10.40;;;6.67;;
5965;SDS011;3009;43.224;27.976;2022-12-01T10:12:55;7.67;;;5.03;;
5965;SDS011;3009;43.224;27.976;2022-12-01T10:15:27;7.90;;;5.90;;
5965;SDS011;3009;43.224;27.976;2022-12-01T10:18:04;9.27;;;5.90;;
5965;SDS011;3009;43.224;27.976;2022-12-01T10:20:44;9.97;;;6.37;;
5965;SDS011;3009;43.224;27.976;2022-12-01T10:23:23;10.80;;;7.07;;
5965;SDS011;3009;43.224;27.976;2022-12-01T10:26:08;6.93;;;6.07;;
5965;SDS011;3009;43.224;27.976;2022-12-01T10:28:50;10.57;;;6.27;;
5965;SDS011;3009;43.224;27.976;2022-12-01T10:31:25;10.17;;;6.47;;
5965;SDS011;3009;43.224;27.976;2022-12-01T10:34:00;5.67;;;4.57;;
5965;SDS011;3009;43.224;27.976;2022-12-01T10:36:30;8.73;;;6.77;;
5965;SDS011;3009;43.224;27.976;2022-12-01T10:39:02;13.20;;;7.80;;
5965;SDS011;3009;43.224;27.976;2022-12-01T10:41:33;12.60;;;7.27;;
5965;SDS011;3009;43.224;27.976;2022-12-01T10:44:04;13.10;;;7.27;;
5965;SDS011;3009;43.224;27.976;2022-12-01T10:46:36;7.53;;;5.20;;
5965;SDS011;3009;43.224;27.976;2022-12-01T10:49:07;6.13;;;4.50;;
5965;SDS011;3009;43.224;27.976;2022-12-01T10:51:49;8.33;;;5.20;;
5965;SDS011;3009;43.224;27.976;2022-12-01T10:54:22;7.53;;;5.40;;
5965;SDS011;3009;43.224;27.976;2022-12-01T10:56:57;8.67;;;6.00;;
5965;SDS011;3009;43.224;27.976;2022-12-01T10:59:27;6.33;;;3.97;;
5965;SDS011;3009;43.224;27.976;2022-12-01T11:01:59;8.80;;;6.17;;
5965;SDS011;3009;43.224;27.976;2022-12-01T11:04:38;6.60;;;4.67;;
5965;SDS011;3009;43.224;27.976;2022-12-01T11:07:15;10.17;;;5.27;;
5965;SDS011;3009;43.224;27.976;2022-12-01T11:09:54;8.50;;;5.83;;
5965;SDS011;3009;43.224;27.976;2022-12-01T11:12:39;5.77;;;4.37;;
5965;SDS011;3009;43.224;27.976;2022-12-01T11:15:17;6.90;;;4.13;;
5965;SDS011;3009;43.224;27.976;2022-12-01T11:17:48;6.27;;;5.23;;
5965;SDS011;3009;43.224;27.976;2022-12-01T11:20:29;9.70;;;6.50;;
5965;SDS011;3009;43.224;27.976;2022-12-01T11:26:08;8.67;;;7.50;;
5965;SDS011;3009;43.224;27.976;2022-12-01T11:28:42;4.20;;;3.90;;
5965;SDS011;3009;43.224;27.976;2022-12-01T11:31:19;6.43;;;4.80;;
5965;SDS011;3009;43.224;27.976;2022-12-01T11:33:53;11.00;;;4.93;;
5965;SDS011;3009;43.224;27.976;2022-12-01T11:36:26;3.80;;;3.50;;
5965;SDS011;3009;43.224;27.976;2022-12-01T11:38:59;4.50;;;3.63;;
5965;SDS011;3009;43.224;27.976;2022-12-01T11:41:30;3.63;;;3.33;;
5965;SDS011;3009;43.224;27.976;2022-12-01T11:44:02;5.40;;;4.23;;
5965;SDS011;3009;43.224;27.976;2022-12-01T11:46:52;10.33;;;5.17;;
5965;SDS011;3009;43.224;27.976;2022-12-01T11:49:41;5.73;;;4.43;;
5965;SDS011;3009;43.224;27.976;2022-12-01T11:52:16;5.57;;;3.93;;
5965;SDS011;3009;43.224;27.976;2022-12-01T11:54:56;5.17;;;3.27;;
5965;SDS011;3009;43.224;27.976;2022-12-01T11:57:35;5.60;;;4.63;;
5965;SDS011;3009;43.224;27.976;2022-12-01T12:00:08;3.57;;;3.30;;
5965;SDS011;3009;43.224;27.976;2022-12-01T12:02:41;4.80;;;4.40;;
5965;SDS011;3009;43.224;27.976;2022-12-01T12:05:41;4.53;;;4.13;;
5965;SDS011;3009;43.224;27.976;2022-12-01T12:08:49;4.93;;;4.33;;
5965;SDS011;3009;43.224;27.976;2022-12-01T12:11:28;5.10;;;3.70;;
5965;SDS011;3009;43.224;27.976;2022-12-01T12:14:20;4.57;;;4.17;;
5965;SDS011;3009;43.224;27.976;2022-12-01T12:17:02;5.23;;;4.73;;
5965;SDS011;3009;43.224;27.976;2022-12-01T12:19:47;5.33;;;4.83;;
5965;SDS011;3009;43.224;27.976;2022-12-01T12:22:42;5.40;;;4.80;;
5965;SDS011;3009;43.224;27.976;2022-12-01T12:25:24;5.70;;;4.83;;
5965;SDS011;3009;43.224;27.976;2022-12-01T12:28:06;7.47;;;4.80;;
5965;SDS011;3009;43.224;27.976;2022-12-01T12:30:47;6.67;;;5.03;;
5965;SDS011;3009;43.224;27.976;2022-12-01T12:33:30;6.53;;;5.10;;
5965;SDS011;3009;43.224;27.976;2022-12-01T12:36:13;4.73;;;4.20;;
5965;SDS011;3009;43.224;27.976;2022-12-01T12:38:57;5.00;;;4.50;;
5965;SDS011;3009;43.224;27.976;2022-12-01T12:41:43;4.43;;;4.03;;
5965;SDS011;3009;43.224;27.976;2022-12-01T12:44:26;3.57;;;3.30;;
5965;SDS011;3009;43.224;27.976;2022-12-01T12:47:09;4.70;;;3.90;;
5965;SDS011;3009;43.224;27.976;2022-12-01T12:49:50;3.97;;;3.67;;
5965;SDS011;3009;43.224;27.976;2022-12-01T12:52:29;4.13;;;3.73;;
5965;SDS011;3009;43.224;27.976;2022-12-01T12:55:01;5.10;;;3.47;;
5965;SDS011;3009;43.224;27.976;2022-12-01T12:57:38;2.77;;;2.67;;
5965;SDS011;3009;43.224;27.976;2022-12-01T13:00:12;2.83;;;2.60;;
5965;SDS011;3009;43.224;27.976;2022-12-01T13:02:46;4.13;;;3.63;;
5965;SDS011;3009;43.224;27.976;2022-12-01T13:05:18;8.33;;;5.23;;
5965;SDS011;3009;43.224;27.976;2022-12-01T13:07:53;2.50;;;2.40;;
5965;SDS011;3009;43.224;27.976;2022-12-01T13:10:27;7.40;;;4.50;;
5965;SDS011;3009;43.224;27.976;2022-12-01T13:13:02;3.10;;;2.90;;
5965;SDS011;3009;43.224;27.976;2022-12-01T13:15:40;5.40;;;4.60;;
5965;SDS011;3009;43.224;27.976;2022-12-01T13:18:14;6.00;;;3.20;;
5965;SDS011;3009;43.224;27.976;2022-12-01T13:20:51;6.57;;;3.60;;
5965;SDS011;3009;43.224;27.976;2022-12-01T13:23:22;4.30;;;3.70;;
5965;SDS011;3009;43.224;27.976;2022-12-01T13:25:51;3.20;;;3.00;;
5965;SDS011;3009;43.224;27.976;2022-12-01T13:28:24;3.30;;;3.00;;
5965;SDS011;3009;43.224;27.976;2022-12-01T13:30:58;4.60;;;2.90;;
5965;SDS011;3009;43.224;27.976;2022-12-01T13:33:30;2.43;;;2.30;;
5965;SDS011;3009;43.224;27.976;2022-12-01T13:36:00;3.67;;;3.37;;
5965;SDS011;3009;43.224;27.976;2022-12-01T13:38:56;3.63;;;3.37;;
5965;SDS011;3009;43.224;27.976;2022-12-01T13:41:27;2.90;;;2.70;;
5965;SDS011;3009;43.224;27.976;2022-12-01T13:44:00;4.00;;;3.60;;
5965;SDS011;3009;43.224;27.976;2022-12-01T13:49:33;5.23;;;4.33;;
5965;SDS011;3009;43.224;27.976;2022-12-01T13:55:03;1.87;;;1.77;;
5965;SDS011;3009;43.224;27.976;2022-12-01T14:00:50;2.70;;;2.50;;
5965;SDS011;3009;43.224;27.976;2022-12-01T14:03:36;2.40;;;2.27;;
5965;SDS011;3009;43.224;27.976;2022-12-01T14:06:18;2.50;;;2.40;;
5965;SDS011;3009;43.224;27.976;2022-12-01T14:08:51;2.43;;;2.33;;
5965;SDS011;3009;43.224;27.976;2022-12-01T14:11:24;2.70;;;2.50;;
5965;SDS011;3009;43.224;27.976;2022-12-01T14:13:54;2.80;;;2.70;;
5965;SDS011;3009;43.224;27.976;2022-12-01T14:16:27;3.23;;;2.97;;
5965;SDS011;3009;43.224;27.976;2022-12-01T14:19:24;4.23;;;3.83;;
5965;SDS011;3009;43.224;27.976;2022-12-01T14:21:58;2.53;;;2.40;;
5965;SDS011;3009;43.224;27.976;2022-12-01T14:24:29;2.80;;;2.60;;
5965;SDS011;3009;43.224;27.976;2022-12-01T14:27:01;2.40;;;2.30;;
5965;SDS011;3009;43.224;27.976;2022-12-01T14:29:31;2.13;;;1.93;;
5965;SDS011;3009;43.224;27.976;2022-12-01T14:32:04;2.00;;;1.90;;
5965;SDS011;3009;43.224;27.976;2022-12-01T14:35:09;1.87;;;1.77;;
5965;SDS011;3009;43.224;27.976;2022-12-01T14:37:43;2.40;;;2.20;;
5965;SDS011;3009;43.224;27.976;2022-12-01T14:40:16;2.57;;;2.33;;
5965;SDS011;3009;43.224;27.976;2022-12-01T14:42:49;3.87;;;1.90;;
5965;SDS011;3009;43.224;27.976;2022-12-01T14:45:40;3.57;;;3.03;;
5965;SDS011;3009;43.224;27.976;2022-12-01T14:48:16;2.60;;;2.40;;
5965;SDS011;3009;43.224;27.976;2022-12-01T14:50:50;2.23;;;2.13;;
5965;SDS011;3009;43.224;27.976;2022-12-01T14:53:23;2.20;;;2.10;;
5965;SDS011;3009;43.224;27.976;2022-12-01T14:55:56;1.20;;;1.20;;
5965;SDS011;3009;43.224;27.976;2022-12-01T14:58:26;1.40;;;1.40;;
5965;SDS011;3009;43.224;27.976;2022-12-01T15:00:58;1.60;;;1.50;;
5965;SDS011;3009;43.224;27.976;2022-12-01T15:03:32;2.60;;;2.43;;
5965;SDS011;3009;43.224;27.976;2022-12-01T15:06:03;1.50;;;1.40;;
5965;SDS011;3009;43.224;27.976;2022-12-01T15:08:33;2.30;;;2.20;;
5965;SDS011;3009;43.224;27.976;2022-12-01T15:11:20;3.20;;;2.40;;
5965;SDS011;3009;43.224;27.976;2022-12-01T15:13:51;1.50;;;1.40;;
5965;SDS011;3009;43.224;27.976;2022-12-01T15:16:21;1.97;;;1.87;;
5965;SDS011;3009;43.224;27.976;2022-12-01T15:18:51;1.70;;;1.70;;
5965;SDS011;3009;43.224;27.976;2022-12-01T15:21:20;1.87;;;1.60;;
5965;SDS011;3009;43.224;27.976;2022-12-01T15:23:52;2.63;;;2.43;;
5965;SDS011;3009;43.224;27.976;2022-12-01T15:26:23;1.77;;;1.67;;
5965;SDS011;3009;43.224;27.976;2022-12-01T15:29:12;1.80;;;1.80;;
5965;SDS011;3009;43.224;27.976;2022-12-01T15:31:42;1.90;;;1.80;;
5965;SDS011;3009;43.224;27.976;2022-12-01T15:34:14;2.27;;;2.17;;
5965;SDS011;3009;43.224;27.976;2022-12-01T15:36:44;2.77;;;2.40;;
5965;SDS011;3009;43.224;27.976;2022-12-01T15:39:16;2.37;;;2.23;;
5965;SDS011;3009;43.224;27.976;2022-12-01T15:41:47;2.20;;;2.10;;
5965;SDS011;3009;43.224;27.976;2022-12-01T15:44:21;2.10;;;2.00;;
5965;SDS011;3009;43.224;27.976;2022-12-01T15:46:53;3.27;;;1.83;;
5965;SDS011;3009;43.224;27.976;2022-12-01T15:49:26;2.33;;;2.23;;
5965;SDS011;3009;43.224;27.976;2022-12-01T15:52:05;3.40;;;2.90;;